createdAt,value
2022-11-28T10:19:52.379Z,12.13
2022-11-28T10:23:45.434Z,12.05
2022-11-28T10:27:49.362Z,13.70
2022-11-28T10:31:55.768Z,14.70
2022-11-28T10:36:00.675Z,14.80
2022-11-28T10:40:14.263Z,13.82
2022-11-28T10:44:23.102Z,12.30
2022-11-28T10:48:45.707Z,13.25
2022-11-28T10:52:53.294Z,13.82
2022-11-28T10:57:20.013Z,13.48
2022-11-28T11:01:22.050Z,12.68
2022-11-28T11:05:28.508Z,12.05
2022-11-28T11:09:30.220Z,14.32
2022-11-28T11:13:35.572Z,13.00
2022-11-28T11:17:40.018Z,13.13
2022-11-28T11:21:41.710Z,11.98
2022-11-28T11:25:53.291Z,12.40
2022-11-28T11:29:55.202Z,12.63
2022-11-28T11:34:06.937Z,13.52
2022-11-28T11:38:17.522Z,12.52
2022-11-28T11:42:25.492Z,13.15
2022-11-28T11:46:27.258Z,14.20
2022-11-28T11:50:31.556Z,13.68
2022-11-28T11:54:33.366Z,12.63
2022-11-28T11:58:49.779Z,12.85
2022-11-28T12:03:06.897Z,14.45
2022-11-28T12:07:28.382Z,13.23
2022-11-28T12:11:43.826Z,13.43
2022-11-28T12:15:54.548Z,12.93
2022-11-28T12:20:24.108Z,14.65
2022-11-28T12:24:33.038Z,14.07
2022-11-28T12:28:43.726Z,13.85
2022-11-28T12:32:51.127Z,13.35
2022-11-28T12:37:55.227Z,13.80
2022-11-28T12:42:09.650Z,11.88
2022-11-28T12:46:29.623Z,13.40
2022-11-28T12:50:44.001Z,12.40
2022-11-28T12:54:48.652Z,12.55
2022-11-28T12:59:22.462Z,13.15
2022-11-28T13:03:36.410Z,11.95
2022-11-28T13:07:56.579Z,11.93
2022-11-28T13:12:29.534Z,13.98
2022-11-28T13:16:49.973Z,14.63
2022-11-28T13:21:25.384Z,14.48
2022-11-28T13:25:47.854Z,14.85
2022-11-28T13:30:17.334Z,13.95
2022-11-28T13:34:20.506Z,15.00
2022-11-28T13:38:36.662Z,14.70
2022-11-28T13:43:04.003Z,13.73
2022-11-28T13:47:23.529Z,13.32
2022-11-28T13:51:31.721Z,13.90
2022-11-28T13:55:51.062Z,14.00
2022-11-28T14:04:12.410Z,12.57
2022-11-28T14:08:30.876Z,13.13
2022-11-28T14:12:44.893Z,14.57
2022-11-28T14:16:53.072Z,12.70
2022-11-28T14:21:43.571Z,13.45
2022-11-28T14:25:49.236Z,12.40
2022-11-28T14:29:53.455Z,12.82
2022-11-28T14:34:04.806Z,12.65
2022-11-28T14:38:46.704Z,13.30
2022-11-28T14:43:25.247Z,13.80
2022-11-28T14:47:42.926Z,12.57
2022-11-28T14:51:48.159Z,12.97
2022-11-28T14:55:51.321Z,11.65
2022-11-28T14:59:54.966Z,13.93
2022-11-28T15:04:13.878Z,12.60
2022-11-28T15:08:37.297Z,14.52
2022-11-28T15:12:51.953Z,15.30
2022-11-28T15:17:04.241Z,14.13
2022-11-28T15:21:11.964Z,15.55
2022-11-28T15:25:26.885Z,15.73
2022-11-28T15:29:29.147Z,15.23
2022-11-28T15:33:32.113Z,14.43
2022-11-28T15:37:35.294Z,13.98
2022-11-28T15:41:37.980Z,13.25
2022-11-28T15:45:43.423Z,13.30
2022-11-28T15:49:45.657Z,12.82
2022-11-28T15:53:47.372Z,12.93
2022-11-28T15:57:49.251Z,12.98
2022-11-28T16:01:59.240Z,12.60
2022-11-28T16:06:01.480Z,12.73
2022-11-28T16:10:17.383Z,11.70
2022-11-28T16:14:45.691Z,12.68
2022-11-28T16:18:55.205Z,12.15
2022-11-28T16:23:02.807Z,12.27
2022-11-28T16:27:06.202Z,11.20
2022-11-28T16:31:21.603Z,10.88
2022-11-28T16:35:26.488Z,12.90
2022-11-28T16:39:32.519Z,11.25
2022-11-28T16:43:39.489Z,11.77
2022-11-28T16:47:41.329Z,11.27
2022-11-28T16:51:43.012Z,10.15
2022-11-28T16:55:45.053Z,9.50
2022-11-28T16:59:48.491Z,9.18
2022-11-28T17:03:52.852Z,9.23
2022-11-28T17:07:54.874Z,9.23
2022-11-28T17:11:59.698Z,10.85
2022-11-28T17:16:01.640Z,8.82
2022-11-28T17:20:03.822Z,9.45
2022-11-28T17:24:06.507Z,18.45
2022-11-28T17:28:09.302Z,9.23
2022-11-28T17:32:13.563Z,9.38
2022-11-28T17:36:15.351Z,9.52
2022-11-28T17:40:36.780Z,10.15
2022-11-28T17:44:39.166Z,10.77
2022-11-28T17:48:40.908Z,9.20
2022-11-28T17:52:42.590Z,11.02
2022-11-28T17:56:46.084Z,10.77
2022-11-28T18:00:48.678Z,11.70
2022-11-28T18:04:50.403Z,13.40
2022-11-28T18:08:53.453Z,12.30
2022-11-28T18:12:56.345Z,13.93
2022-11-28T18:16:59.678Z,16.42
2022-11-28T18:21:02.101Z,16.88
2022-11-28T18:25:04.117Z,17.08
2022-11-28T18:29:09.142Z,17.67
2022-11-28T18:33:13.854Z,19.77
2022-11-28T18:37:15.576Z,20.83
2022-11-28T18:41:17.759Z,20.33
2022-11-28T18:45:20.979Z,19.30
2022-11-28T18:49:22.795Z,21.35
2022-11-28T18:53:25.168Z,22.73
2022-11-28T18:57:31.528Z,19.80
2022-11-28T19:01:34.741Z,20.10
2022-11-28T19:05:42.155Z,22.45
2022-11-28T19:09:45.555Z,21.10
2022-11-28T19:13:48.410Z,21.80
2022-11-28T19:17:50.104Z,19.52
2022-11-28T19:21:52.822Z,22.20
2022-11-28T19:25:54.642Z,20.58
2022-11-28T19:29:56.353Z,21.20
2022-11-28T19:34:16.148Z,20.75
2022-11-28T19:38:19.292Z,20.80
2022-11-28T19:42:21.176Z,19.95
2022-11-28T19:46:22.884Z,22.50
2022-11-28T19:50:24.648Z,20.17
2022-11-28T19:54:26.728Z,18.70
2022-11-28T19:58:31.703Z,20.70
2022-11-28T20:02:33.735Z,20.58
2022-11-28T20:06:36.026Z,22.63
2022-11-28T20:10:39.308Z,19.60
2022-11-28T20:14:41.974Z,19.52
2022-11-28T20:18:45.155Z,20.73
2022-11-28T20:22:48.480Z,20.75
2022-11-28T20:26:51.190Z,20.95
2022-11-28T20:30:55.111Z,20.75
2022-11-28T20:34:57.090Z,20.48
2022-11-28T20:38:59.648Z,22.25
2022-11-28T20:43:01.331Z,22.17
2022-11-28T20:47:03.049Z,20.13
2022-11-28T20:51:26.130Z,20.38
2022-11-28T20:55:27.837Z,21.58
2022-11-28T20:59:29.680Z,23.40
2022-11-28T21:03:31.955Z,19.58
2022-11-28T21:07:33.748Z,19.92
2022-11-28T21:11:56.945Z,19.00
2022-11-28T21:15:58.587Z,19.70
2022-11-28T21:20:00.272Z,19.40
2022-11-28T21:24:06.149Z,19.63
2022-11-28T21:28:09.538Z,17.20
2022-11-28T21:32:13.627Z,17.45
2022-11-28T21:36:15.512Z,17.88
2022-11-28T21:40:17.305Z,17.08
2022-11-28T21:44:19.710Z,17.55
2022-11-28T21:48:22.091Z,17.42
2022-11-28T21:52:24.753Z,19.50
2022-11-28T21:56:26.648Z,15.70
2022-11-28T22:00:52.054Z,17.88
2022-11-28T22:04:50.607Z,19.30
2022-11-28T22:08:53.847Z,19.40
2022-11-28T22:12:57.908Z,18.30
2022-11-28T22:17:00.077Z,18.40
2022-11-28T22:21:28.532Z,16.77
2022-11-28T22:25:29.016Z,16.83
2022-11-28T22:29:30.841Z,15.90
2022-11-28T22:33:32.717Z,15.45
2022-11-28T22:37:34.437Z,15.27
2022-11-28T22:41:36.433Z,13.98
2022-11-28T22:45:38.232Z,14.52
2022-11-28T22:49:40.136Z,15.50
2022-11-28T22:53:42.422Z,14.50
2022-11-28T22:57:44.126Z,16.13
2022-11-28T23:01:45.865Z,15.07
2022-11-28T23:05:49.294Z,14.57
2022-11-28T23:09:53.238Z,13.65
2022-11-28T23:13:55.071Z,15.18
2022-11-28T23:17:56.970Z,14.35
2022-11-28T23:21:59.036Z,13.48
2022-11-28T23:26:10.482Z,12.77
2022-11-28T23:30:13.007Z,13.52
2022-11-28T23:34:15.686Z,12.88
2022-11-28T23:38:18.571Z,14.32
2022-11-28T23:42:20.361Z,14.95
2022-11-28T23:46:23.227Z,13.80
2022-11-28T23:50:24.895Z,14.38
2022-11-28T23:54:26.561Z,13.85
2022-11-28T23:58:28.222Z,15.18
